Airfield :
LOGIN :

Register | Disclaimer

   EN    FR    IT 

 










Legend :    VFR   Marginal VFR   IFR   Intensive IFR   Very Intensive IFR
Visi :
Ceiling :
>= 8 km
>= 3000ft
5 to 8 km
1000 to 3000 ft
1500m to 5 km
500 to 1000 ft
800 to 1500m
200 to 500 ft
< 800m
< 200 ft
Symbols :   Thunderstorms  Fog  Heavy snow  Heavy precipitations  Wind > 20 kt
SIGMETs :     Misc.  Thunderstorms  Icing  Turbulence  Mountain Waves  Volcanic Ashes







- Airport Elevation : 1197 ft
- IATA code : SPM


ETAD - Spangdahlem Ab

CURRENT METAR :
  • 211256Z AUTO 09008KT 9999 CLR 22/03 A3005 RMK AO2 SLP160 T02200026 $

EXPIRED METARs :
  • 211156Z AUTO 08011KT 9999 CLR 21/02 A3007 RMK AO2 SLP167 T02080021 10208 20103 57021 $
  • 211056Z AUTO 10008KT 9999 CLR 19/02 A3010 RMK AO2 SLP179 T01930017 $
  • 210956Z AUTO 08010KT 9999 CLR 18/03 A3011 RMK AO2 SLP182 T01750026 $

TAF TAF ETAD
Valid from the 21 at 06:00 until the 22 at 12:00 UTC


210600Z 2106/2212 08006KT 9999 SKC QNH3014INS
BECMG 2107/2108 11012KT 9999 FEW030 QNH2998INS
BECMG 2117/2118 09006KT 9999 FEW030 SCT150 QNH2997INS TX20/2114Z TN08/2205Z
No reported NOTAMs for that airfield.



MET'MAP, your aeronautical weather chart ! - Copyright ORBIFLY December 2007 - Disclaimer

ORBIFLY MET'MAP TEAM :

Programming & Development : Alexandra Zaïnal
Concept & Development : Baudouin d'Aumeries
Co-Development & Prog : Marc-Olivier Méhu
Technical & hardware support : Manuel Goepfert

Contact : metmap@orbifly.com




SOURCES & CREDITS :

   NOAA